createdAt,value
2022-07-30T00:01:22.497Z,100164.25
2022-07-30T00:03:48.962Z,100175.81
2022-07-30T00:06:17.823Z,100177.72
2022-07-30T00:08:44.122Z,100171.59
2022-07-30T00:11:11.913Z,100177.88
2022-07-30T00:13:38.141Z,100189.78
2022-07-30T00:16:04.427Z,100185.03
2022-07-30T00:18:30.724Z,100194.78
2022-07-30T00:20:57.007Z,100185.44
2022-07-30T00:23:23.314Z,100192.56
2022-07-30T00:25:49.618Z,100194.78
2022-07-30T00:28:15.931Z,100193.78
2022-07-30T00:30:42.246Z,100194.34
2022-07-30T00:33:08.619Z,100202.38
2022-07-30T00:35:34.931Z,100197.94
2022-07-30T00:38:01.229Z,100189.44
2022-07-30T00:40:27.540Z,100200.16
2022-07-30T00:42:53.833Z,100194.13
2022-07-30T00:45:20.119Z,100190.38
2022-07-30T00:47:46.447Z,100198.34
2022-07-30T00:50:12.728Z,100175.53
2022-07-30T00:52:39.014Z,100174.53
2022-07-30T00:55:05.308Z,100175.16
2022-07-30T00:57:31.603Z,100180.91
2022-07-30T00:59:58.147Z,100189.94
2022-07-30T01:02:24.465Z,100185.72
2022-07-30T01:04:50.808Z,100179.22
2022-07-30T01:07:19.068Z,100184.88
2022-07-30T01:09:48.015Z,100173.75
2022-07-30T01:12:14.864Z,100171.94
2022-07-30T01:14:41.169Z,100175.50
2022-07-30T01:17:07.450Z,100180.25
2022-07-30T01:19:48.937Z,100182.19
2022-07-30T01:22:15.250Z,100182.19
2022-07-30T01:24:41.552Z,100185.16
2022-07-30T01:27:07.853Z,100185.72
2022-07-30T01:29:34.150Z,100186.50
2022-07-30T01:32:00.557Z,100181.75
2022-07-30T01:34:26.919Z,100182.69
2022-07-30T01:36:53.212Z,100182.06
2022-07-30T01:39:19.604Z,100176.59
2022-07-30T01:41:45.911Z,100174.06
2022-07-30T01:44:12.206Z,100180.56
2022-07-30T01:46:38.506Z,100172.91
2022-07-30T01:49:04.891Z,100174.44
2022-07-30T01:51:37.145Z,100174.84
2022-07-30T01:54:04.044Z,100176.56
2022-07-30T01:56:30.334Z,100172.66
2022-07-30T01:59:01.126Z,100173.50
2022-07-30T02:01:27.515Z,100176.41
2022-07-30T02:03:53.933Z,100171.66
2022-07-30T02:06:21.143Z,100172.34
2022-07-30T02:08:47.437Z,100167.09
2022-07-30T02:11:13.715Z,100166.22
2022-07-30T02:13:40.028Z,100157.59
2022-07-30T02:16:06.350Z,100159.91
2022-07-30T02:18:32.695Z,100167.56
2022-07-30T02:20:58.987Z,100165.66
2022-07-30T02:23:25.344Z,100168.22
2022-07-30T02:25:51.646Z,100163.63
2022-07-30T02:28:17.946Z,100164.53
2022-07-30T02:30:44.243Z,100171.50
2022-07-30T02:33:12.622Z,100169.25
2022-07-30T02:35:38.926Z,100172.72
2022-07-30T02:38:05.530Z,100174.00
2022-07-30T02:40:31.831Z,100171.09
2022-07-30T02:42:58.139Z,100177.38
2022-07-30T02:45:24.715Z,100181.47
2022-07-30T02:47:51.026Z,100178.47
2022-07-30T02:50:17.356Z,100182.69
2022-07-30T02:52:43.646Z,100182.72
2022-07-30T02:55:09.941Z,100186.28
2022-07-30T02:57:36.263Z,100182.41
2022-07-30T03:00:09.561Z,100182.81
2022-07-30T03:02:36.135Z,100179.09
2022-07-30T03:05:04.262Z,100177.56
2022-07-30T03:07:30.560Z,100182.09
2022-07-30T03:09:57.063Z,100185.25
2022-07-30T03:12:23.364Z,100189.81
2022-07-30T03:14:49.661Z,100185.44
2022-07-30T03:17:15.974Z,100170.53
2022-07-30T03:19:42.277Z,100178.91
2022-07-30T03:22:08.606Z,100172.06
2022-07-30T03:24:35.163Z,100165.94
2022-07-30T03:27:03.824Z,100173.50
2022-07-30T03:29:30.367Z,100180.97
2022-07-30T03:31:56.716Z,100174.53
2022-07-30T03:34:23.226Z,100180.09
2022-07-30T03:36:50.692Z,100181.59
2022-07-30T03:39:17.444Z,100177.88
2022-07-30T03:41:43.735Z,100181.22
2022-07-30T03:44:10.163Z,100180.28
2022-07-30T03:46:36.541Z,100185.03
2022-07-30T03:49:02.945Z,100185.09
2022-07-30T03:51:32.993Z,100182.44
2022-07-30T03:53:59.670Z,100187.19
2022-07-30T03:56:26.076Z,100182.28
2022-07-30T03:58:52.386Z,100171.41
2022-07-30T04:01:18.779Z,100180.59
2022-07-30T04:03:45.181Z,100174.03
2022-07-30T04:06:11.530Z,100172.13
2022-07-30T04:08:37.834Z,100184.84
2022-07-30T04:11:04.169Z,100187.03
2022-07-30T04:13:30.585Z,100182.94
2022-07-30T04:16:38.489Z,100177.97
2022-07-30T04:18:43.176Z,100180.59
2022-07-30T04:21:15.987Z,100179.31
2022-07-30T04:24:04.044Z,100176.22
2022-07-30T04:26:29.911Z,100180.44
2022-07-30T04:28:56.791Z,100178.91
2022-07-30T04:31:23.143Z,100173.78
2022-07-30T04:33:49.485Z,100178.72
2022-07-30T04:36:16.514Z,100173.84
2022-07-30T04:38:42.884Z,100188.94
2022-07-30T04:41:09.211Z,100184.88
2022-07-30T04:43:35.525Z,100179.75
2022-07-30T04:46:01.974Z,100179.75
2022-07-30T04:48:29.052Z,100174.00
2022-07-30T04:50:55.267Z,100177.38
2022-07-30T04:53:21.560Z,100171.75
2022-07-30T04:55:47.896Z,100177.56
2022-07-30T04:58:14.222Z,100172.94
2022-07-30T05:00:41.467Z,100172.94
2022-07-30T05:03:08.098Z,100172.94
2022-07-30T05:05:34.423Z,100171.38
2022-07-30T05:08:00.718Z,100166.91
2022-07-30T05:10:27.011Z,100165.75
2022-07-30T05:12:53.322Z,100172.34
2022-07-30T05:15:19.924Z,100172.56
2022-07-30T05:17:46.210Z,100169.59
2022-07-30T05:20:12.502Z,100173.13
2022-07-30T05:22:38.801Z,100159.41
2022-07-30T05:25:16.005Z,100171.41
2022-07-30T05:27:42.687Z,100168.84
2022-07-30T05:30:08.983Z,100169.78
2022-07-30T05:32:35.354Z,100169.25
2022-07-30T05:35:02.229Z,100171.81
2022-07-30T05:37:28.507Z,100170.00
2022-07-30T05:39:57.611Z,100169.16
2022-07-30T05:42:29.314Z,100174.84
2022-07-30T05:44:55.869Z,100168.31
2022-07-30T05:47:22.853Z,100168.06
2022-07-30T05:49:49.100Z,100164.69
2022-07-30T05:52:15.410Z,100172.78
2022-07-30T05:54:41.754Z,100174.38
2022-07-30T05:57:08.053Z,100179.31
2022-07-30T05:59:34.372Z,100183.59
2022-07-30T06:02:01.832Z,100178.47
2022-07-30T06:04:28.252Z,100188.25
2022-07-30T06:06:54.634Z,100187.31
2022-07-30T06:09:32.957Z,100186.72
2022-07-30T06:12:03.495Z,100194.16
2022-07-30T06:14:29.794Z,100201.38
2022-07-30T06:16:56.079Z,100202.41
2022-07-30T06:19:22.535Z,100206.72
2022-07-30T06:22:05.763Z,100212.13
2022-07-30T06:24:33.280Z,100215.50
2022-07-30T06:26:59.873Z,100211.66
2022-07-30T06:29:26.474Z,100214.91
2022-07-30T06:31:52.788Z,100220.19
2022-07-30T06:34:19.115Z,100220.44
2022-07-30T06:36:45.455Z,100223.00
2022-07-30T06:39:11.749Z,100223.81
2022-07-30T06:41:38.136Z,100226.88
2022-07-30T06:44:04.427Z,100229.59
2022-07-30T06:46:30.785Z,100229.09
2022-07-30T06:48:57.161Z,100232.81
2022-07-30T06:51:23.509Z,100232.34
2022-07-30T06:53:49.808Z,100230.97
2022-07-30T06:56:16.104Z,100234.00
2022-07-30T06:58:42.400Z,100233.38
2022-07-30T07:01:11.263Z,100229.59
2022-07-30T07:03:40.014Z,100231.09
2022-07-30T07:06:06.679Z,100239.59
2022-07-30T07:08:32.975Z,100235.22
2022-07-30T07:10:59.286Z,100238.09
2022-07-30T07:13:25.579Z,100243.31
2022-07-30T07:15:51.871Z,100241.00
2022-07-30T07:18:18.176Z,100245.72
2022-07-30T07:20:46.548Z,100246.78
2022-07-30T07:23:12.865Z,100244.88
2022-07-30T07:25:40.180Z,100247.66
2022-07-30T07:28:11.637Z,100243.00
2022-07-30T07:30:39.685Z,100247.78
2022-07-30T07:33:06.071Z,100253.69
2022-07-30T07:35:32.384Z,100248.44
2022-07-30T07:38:14.700Z,100253.53
2022-07-30T07:40:40.986Z,100255.06
2022-07-30T07:43:07.313Z,100251.25
2022-07-30T07:45:34.222Z,100246.53
2022-07-30T07:48:00.579Z,100245.81
2022-07-30T07:50:26.887Z,100249.13
2022-07-30T07:52:53.241Z,100250.44
2022-07-30T07:55:22.980Z,100251.75
2022-07-30T07:57:50.400Z,100244.81
2022-07-30T08:00:17.743Z,100254.53
2022-07-30T08:02:44.357Z,100255.16
2022-07-30T08:05:12.476Z,100255.06
2022-07-30T08:07:38.912Z,100258.22
2022-07-30T08:10:05.230Z,100259.38
2022-07-30T08:12:31.582Z,100265.72
2022-07-30T08:14:57.862Z,100263.34
2022-07-30T08:17:24.509Z,100262.97
2022-07-30T08:19:50.804Z,100258.66
2022-07-30T08:22:17.114Z,100259.00
2022-07-30T08:24:43.406Z,100263.44
2022-07-30T08:27:09.690Z,100260.03
2022-07-30T08:29:35.985Z,100263.13
2022-07-30T08:32:02.632Z,100257.09
2022-07-30T08:34:29.417Z,100255.34
2022-07-30T08:36:55.779Z,100260.41
2022-07-30T08:39:22.101Z,100263.97
2022-07-30T08:41:48.396Z,100263.44
2022-07-30T08:44:14.692Z,100265.81
2022-07-30T08:46:41.344Z,100258.09
2022-07-30T08:49:14.223Z,100264.50
2022-07-30T08:51:40.518Z,100270.56
2022-07-30T08:54:06.845Z,100265.00
2022-07-30T08:56:33.167Z,100275.59
2022-07-30T08:58:59.467Z,100272.00
2022-07-30T09:01:25.768Z,100278.44
2022-07-30T09:03:52.107Z,100272.31
2022-07-30T09:06:18.449Z,100271.97
2022-07-30T09:08:44.754Z,100269.22
2022-07-30T09:11:11.083Z,100269.38
2022-07-30T09:13:41.700Z,100284.88
2022-07-30T09:16:08.076Z,100278.16
2022-07-30T09:18:34.409Z,100278.38
2022-07-30T09:21:00.750Z,100281.31
2022-07-30T09:23:27.106Z,100287.25
2022-07-30T09:25:54.424Z,100284.94
2022-07-30T09:28:20.850Z,100288.06
2022-07-30T09:30:47.130Z,100280.53
2022-07-30T09:33:13.437Z,100290.09
2022-07-30T09:35:39.726Z,100286.69
2022-07-30T09:38:06.765Z,100293.66
2022-07-30T09:40:33.622Z,100300.56
2022-07-30T09:42:59.920Z,100293.59
2022-07-30T09:45:26.210Z,100301.03
2022-07-30T09:48:01.416Z,100304.84
2022-07-30T09:50:30.046Z,100299.03
2022-07-30T09:52:57.072Z,100309.81
2022-07-30T09:55:23.552Z,100305.06
2022-07-30T09:57:51.484Z,100305.41
2022-07-30T10:00:23.714Z,100310.50
2022-07-30T10:02:51.598Z,100306.44
2022-07-30T10:05:19.300Z,100304.84
2022-07-30T10:07:46.778Z,100298.72
2022-07-30T10:10:14.608Z,100296.69
2022-07-30T10:12:43.447Z,100305.91
2022-07-30T10:15:13.495Z,100310.06
2022-07-30T10:17:40.039Z,100316.97
2022-07-30T10:20:08.906Z,100319.00
2022-07-30T10:22:35.736Z,100311.66
2022-07-30T10:25:02.527Z,100312.34
2022-07-30T10:27:32.117Z,100312.03
2022-07-30T10:29:58.558Z,100311.34
2022-07-30T10:32:31.020Z,100313.00
2022-07-30T10:34:57.450Z,100323.41
2022-07-30T10:37:24.312Z,100319.59
2022-07-30T10:39:52.415Z,100320.19
2022-07-30T10:42:19.723Z,100322.84
2022-07-30T10:44:46.048Z,100320.97
2022-07-30T10:47:13.941Z,100317.53
2022-07-30T10:49:40.634Z,100315.66
2022-07-30T10:52:08.032Z,100323.66
2022-07-30T10:54:39.339Z,100326.97
2022-07-30T10:57:06.390Z,100325.25
2022-07-30T10:59:32.689Z,100323.44
2022-07-30T11:02:03.363Z,100323.22
2022-07-30T11:04:29.905Z,100319.16
2022-07-30T11:06:56.208Z,100323.03
2022-07-30T11:09:22.989Z,100312.56
2022-07-30T11:12:01.215Z,100314.72
2022-07-30T11:14:32.714Z,100314.53
2022-07-30T11:16:59.096Z,100312.72
2022-07-30T11:19:56.203Z,100303.88
2022-07-30T11:22:12.883Z,100298.13
2022-07-30T11:24:39.218Z,100298.59
2022-07-30T11:27:05.517Z,100300.69
2022-07-30T11:29:35.227Z,100295.88
2022-07-30T11:32:17.360Z,100299.81
2022-07-30T11:34:43.742Z,100296.91
2022-07-30T11:37:18.096Z,100293.88
2022-07-30T11:39:48.358Z,100305.09
2022-07-30T11:42:15.702Z,100303.53
2022-07-30T11:44:42.471Z,100297.84
2022-07-30T11:47:08.802Z,100297.75
2022-07-30T11:49:35.123Z,100291.03
2022-07-30T11:52:01.632Z,100296.50
2022-07-30T11:54:28.085Z,100295.56
2022-07-30T11:56:54.374Z,100301.22
2022-07-30T11:59:20.677Z,100298.88
2022-07-30T12:01:46.984Z,100298.66
2022-07-30T12:04:13.276Z,100299.91
2022-07-30T12:06:39.723Z,100305.94
2022-07-30T12:09:06.037Z,100301.72
2022-07-30T12:11:32.407Z,100312.66
2022-07-30T12:13:59.610Z,100310.41
2022-07-30T12:16:25.923Z,100298.09
2022-07-30T12:18:52.234Z,100296.50
2022-07-30T12:21:18.837Z,100302.13
2022-07-30T12:23:45.111Z,100302.88
2022-07-30T12:26:11.403Z,100308.16
2022-07-30T12:28:37.733Z,100292.81
2022-07-30T12:31:04.373Z,100300.97
2022-07-30T12:33:30.731Z,100296.41
2022-07-30T12:35:57.031Z,100302.28
2022-07-30T12:38:23.342Z,100304.06
2022-07-30T12:40:49.659Z,100302.94
2022-07-30T12:43:16.188Z,100303.25
2022-07-30T12:45:52.201Z,100296.31
2022-07-30T12:48:20.747Z,100301.41
2022-07-30T12:50:48.482Z,100300.09
2022-07-30T12:53:14.770Z,100289.97
2022-07-30T12:55:41.084Z,100296.44
2022-07-30T12:58:08.812Z,100286.84
2022-07-30T13:00:36.077Z,100293.81
2022-07-30T13:03:02.318Z,100294.81
2022-07-30T13:05:28.608Z,100297.47
2022-07-30T13:07:54.897Z,100301.91
2022-07-30T13:10:21.402Z,100295.66
2022-07-30T13:12:47.692Z,100297.06
2022-07-30T13:15:14.018Z,100305.38
2022-07-30T13:17:40.310Z,100294.06
2022-07-30T13:20:06.618Z,100297.56
2022-07-30T13:22:32.919Z,100297.66
2022-07-30T13:25:00.374Z,100301.56
2022-07-30T13:27:26.675Z,100301.13
2022-07-30T13:29:52.995Z,100301.03
2022-07-30T13:32:19.293Z,100295.00
2022-07-30T13:34:49.048Z,100295.38
2022-07-30T13:37:15.346Z,100300.75
2022-07-30T13:39:41.662Z,100307.91
2022-07-30T13:42:07.971Z,100303.31
2022-07-30T13:44:34.259Z,100296.72
2022-07-30T13:47:02.079Z,100292.00
2022-07-30T13:49:28.707Z,100298.53
2022-07-30T13:51:56.564Z,100300.81
2022-07-30T13:54:22.886Z,100302.03
2022-07-30T13:56:49.179Z,100300.94
2022-07-30T13:59:16.035Z,100295.38
2022-07-30T14:01:42.723Z,100309.00
2022-07-30T14:04:09.396Z,100300.75
2022-07-30T14:06:35.724Z,100294.53
2022-07-30T14:09:02.050Z,100310.69
2022-07-30T14:11:28.354Z,100304.00
2022-07-30T14:13:54.899Z,100317.31
2022-07-30T14:16:43.511Z,100319.50
2022-07-30T14:19:07.523Z,100319.53
2022-07-30T14:21:34.481Z,100307.00
2022-07-30T14:24:00.942Z,100307.16
2022-07-30T14:26:30.039Z,100306.94
2022-07-30T14:29:02.727Z,100304.00
2022-07-30T14:31:29.046Z,100312.28
2022-07-30T14:33:55.552Z,100311.50
2022-07-30T14:36:22.392Z,100305.38
2022-07-30T14:38:48.926Z,100301.91
2022-07-30T14:41:15.215Z,100310.84
2022-07-30T14:43:41.524Z,100300.69
2022-07-30T14:46:07.802Z,100303.34
2022-07-30T14:48:34.104Z,100300.03
2022-07-30T14:51:16.024Z,100298.50
2022-07-30T14:53:47.075Z,100299.88
2022-07-30T14:56:13.678Z,100301.66
2022-07-30T14:58:40.153Z,100308.09
2022-07-30T15:01:15.639Z,100313.66
2022-07-30T15:03:42.566Z,100296.84
2022-07-30T15:06:09.630Z,100307.81
2022-07-30T15:08:36.119Z,100305.63
2022-07-30T15:11:04.083Z,100299.19
2022-07-30T15:13:32.492Z,100310.06
2022-07-30T15:15:58.834Z,100299.06
2022-07-30T15:18:25.131Z,100309.53
2022-07-30T15:20:51.421Z,100307.16
2022-07-30T15:23:17.703Z,100316.94
2022-07-30T15:25:43.997Z,100303.47
2022-07-30T15:28:10.291Z,100312.00
2022-07-30T15:30:36.764Z,100310.41
2022-07-30T15:33:03.097Z,100314.78
2022-07-30T15:35:29.397Z,100312.47
2022-07-30T15:37:55.881Z,100317.16
2022-07-30T15:40:22.188Z,100321.16
2022-07-30T15:42:48.514Z,100321.84
2022-07-30T15:45:17.555Z,100318.84
2022-07-30T15:47:44.816Z,100312.94
2022-07-30T15:50:11.133Z,100320.94
2022-07-30T15:52:37.490Z,100325.00
2022-07-30T15:55:04.205Z,100320.72
2022-07-30T15:57:30.514Z,100318.44
2022-07-30T15:59:56.989Z,100322.75
2022-07-30T16:02:23.298Z,100324.34
2022-07-30T16:04:49.596Z,100320.06
2022-07-30T16:07:19.049Z,100319.94
2022-07-30T16:09:45.370Z,100317.84
2022-07-30T16:12:11.703Z,100326.25
2022-07-30T16:14:37.999Z,100325.16
2022-07-30T16:17:04.896Z,100335.28
2022-07-30T16:19:31.139Z,100335.56
2022-07-30T16:21:57.604Z,100333.13
2022-07-30T16:24:23.903Z,100337.50
2022-07-30T16:26:50.591Z,100330.09
2022-07-30T16:29:17.822Z,100333.34
2022-07-30T16:31:44.137Z,100333.47
2022-07-30T16:34:10.435Z,100335.38
2022-07-30T16:36:36.722Z,100337.47
2022-07-30T16:39:03.024Z,100342.94
2022-07-30T16:41:29.331Z,100347.66
2022-07-30T16:43:55.631Z,100364.66
2022-07-30T16:46:21.973Z,100358.03
2022-07-30T16:48:50.598Z,100366.97
2022-07-30T16:51:17.047Z,100362.00
2022-07-30T16:53:43.359Z,100357.84
2022-07-30T16:56:09.665Z,100362.09
2022-07-30T16:58:35.950Z,100363.69
2022-07-30T17:01:02.270Z,100371.84
2022-07-30T17:03:28.614Z,100368.06
2022-07-30T17:05:54.913Z,100375.97
2022-07-30T17:08:24.581Z,100383.13
2022-07-30T17:10:51.525Z,100390.69
2022-07-30T17:13:17.844Z,100393.97
2022-07-30T17:15:44.201Z,100396.44
2022-07-30T17:18:13.150Z,100397.09
2022-07-30T17:20:39.437Z,100398.06
2022-07-30T17:23:05.788Z,100392.97
2022-07-30T17:25:32.092Z,100396.91
2022-07-30T17:27:58.396Z,100390.22
2022-07-30T17:30:24.700Z,100391.06
2022-07-30T17:32:50.998Z,100407.97
2022-07-30T17:35:17.327Z,100395.97
2022-07-30T17:37:43.614Z,100394.25
2022-07-30T17:40:29.867Z,100390.06
2022-07-30T17:43:02.936Z,100393.56
2022-07-30T17:45:29.282Z,100398.94
2022-07-30T17:47:55.587Z,100392.97
2022-07-30T17:50:21.914Z,100401.75
2022-07-30T17:52:48.193Z,100412.88
2022-07-30T17:55:14.526Z,100399.78
2022-07-30T17:57:40.858Z,100408.00
2022-07-30T18:00:07.222Z,100407.72
2022-07-30T18:02:33.543Z,100409.72
2022-07-30T18:04:59.847Z,100411.13
2022-07-30T18:07:26.160Z,100420.81
2022-07-30T18:09:52.435Z,100423.75
2022-07-30T18:12:18.748Z,100422.28
2022-07-30T18:14:45.058Z,100414.44
2022-07-30T18:17:14.392Z,100426.13
2022-07-30T18:19:41.026Z,100428.34
2022-07-30T18:22:07.433Z,100432.56
2022-07-30T18:24:33.757Z,100429.16
2022-07-30T18:27:06.489Z,100438.78
2022-07-30T18:29:32.804Z,100440.50
2022-07-30T18:31:59.150Z,100443.75
2022-07-30T18:34:25.482Z,100443.84
2022-07-30T18:36:53.047Z,100440.25
2022-07-30T18:39:19.358Z,100442.13
2022-07-30T18:41:45.654Z,100446.53
2022-07-30T18:44:11.945Z,100456.84
2022-07-30T18:46:38.342Z,100453.78
2022-07-30T18:49:26.611Z,100459.63
2022-07-30T18:51:50.944Z,100462.56
2022-07-30T18:54:18.025Z,100458.53
2022-07-30T18:56:44.347Z,100458.13
2022-07-30T18:59:10.662Z,100466.06
2022-07-30T19:01:39.065Z,100465.34
2022-07-30T19:04:05.568Z,100470.44
2022-07-30T19:06:31.850Z,100467.72
2022-07-30T19:09:00.013Z,100473.84
2022-07-30T19:11:26.318Z,100483.06
2022-07-30T19:13:52.610Z,100476.25
2022-07-30T19:16:20.561Z,100481.22
2022-07-30T19:18:46.861Z,100487.16
2022-07-30T19:21:14.244Z,100482.91
2022-07-30T19:23:40.632Z,100474.94
2022-07-30T19:26:06.942Z,100475.56
2022-07-30T19:28:34.616Z,100483.22
2022-07-30T19:31:00.914Z,100476.75
2022-07-30T19:33:27.241Z,100478.09
2022-07-30T19:35:53.574Z,100474.06
2022-07-30T19:38:22.213Z,100478.47
2022-07-30T19:40:50.419Z,100481.19
2022-07-30T19:43:16.709Z,100476.41
2022-07-30T19:45:47.780Z,100479.50
2022-07-30T19:48:14.657Z,100484.59
2022-07-30T19:50:41.626Z,100483.09
2022-07-30T19:53:08.790Z,100488.34
2022-07-30T19:55:37.199Z,100483.25
2022-07-30T19:58:03.843Z,100481.03
2022-07-30T20:00:30.706Z,100477.63
2022-07-30T20:02:57.016Z,100479.50
2022-07-30T20:05:24.812Z,100476.09
2022-07-30T20:07:51.380Z,100474.53
2022-07-30T20:10:19.322Z,100478.13
2022-07-30T20:12:49.088Z,100470.09
2022-07-30T20:15:16.018Z,100482.72
2022-07-30T20:17:42.358Z,100484.59
2022-07-30T20:20:09.189Z,100485.28
2022-07-30T20:22:35.487Z,100477.09
2022-07-30T20:25:02.493Z,100489.88
2022-07-30T20:27:35.786Z,100483.59
2022-07-30T20:30:03.159Z,100482.38
2022-07-30T20:32:29.452Z,100487.84
2022-07-30T20:34:56.482Z,100485.44
2022-07-30T20:37:23.237Z,100476.91
2022-07-30T20:39:49.538Z,100474.69
2022-07-30T20:42:16.223Z,100486.91
2022-07-30T20:44:43.071Z,100479.78
2022-07-30T20:47:09.705Z,100475.16
2022-07-30T20:49:36.023Z,100481.81
2022-07-30T20:52:02.550Z,100485.56
2022-07-30T20:54:29.246Z,100490.50
2022-07-30T20:56:56.036Z,100486.91
2022-07-30T21:02:08.736Z,100488.25
2022-07-30T21:04:41.351Z,100490.28
2022-07-30T21:07:12.660Z,100490.56
2022-07-30T21:09:49.980Z,100492.94
2022-07-30T21:12:19.815Z,100493.09
2022-07-30T21:14:59.580Z,100494.28
2022-07-30T21:17:26.176Z,100494.28
2022-07-30T21:19:54.554Z,100491.56
2022-07-30T21:22:21.703Z,100497.50
2022-07-30T21:24:48.065Z,100496.59
2022-07-30T21:27:14.376Z,100491.50
2022-07-30T21:29:41.330Z,100494.56
2022-07-30T21:32:07.650Z,100499.47
2022-07-30T21:34:40.230Z,100504.91
2022-07-30T21:37:08.514Z,100511.53
2022-07-30T21:39:40.186Z,100510.50
2022-07-30T21:42:06.682Z,100514.53
2022-07-30T21:44:32.993Z,100509.22
2022-07-30T21:46:59.920Z,100515.63
2022-07-30T21:49:27.579Z,100515.44
2022-07-30T21:51:57.942Z,100518.13
2022-07-30T21:54:28.979Z,100511.66
2022-07-30T21:56:56.360Z,100514.84
2022-07-30T21:59:24.513Z,100511.19
2022-07-30T22:01:55.172Z,100511.09
2022-07-30T22:04:21.586Z,100507.78
2022-07-30T22:06:47.867Z,100507.78
2022-07-30T22:09:19.108Z,100503.47
2022-07-30T22:12:00.812Z,100510.84
2022-07-30T22:14:27.830Z,100512.00
2022-07-30T22:16:55.359Z,100508.16
2022-07-30T22:19:21.862Z,100521.28
2022-07-30T22:21:48.976Z,100512.63
2022-07-30T22:24:29.329Z,100516.59
2022-07-30T22:26:57.299Z,100504.00
2022-07-30T22:29:27.378Z,100508.44
2022-07-30T22:32:01.288Z,100504.69
2022-07-30T22:34:27.886Z,100505.53
2022-07-30T22:36:54.195Z,100506.03
2022-07-30T22:39:23.912Z,100505.44
2022-07-30T22:41:58.646Z,100501.88
2022-07-30T22:44:27.288Z,100506.28
2022-07-30T22:46:56.509Z,100500.78
2022-07-30T22:49:23.896Z,100498.06
2022-07-30T22:52:10.022Z,100495.34
2022-07-30T22:54:51.646Z,100493.97
2022-07-30T22:57:23.057Z,100497.00
2022-07-30T22:59:57.976Z,100492.56
2022-07-30T23:02:27.713Z,100486.84
2022-07-30T23:04:56.423Z,100486.84
2022-07-30T23:07:22.795Z,100485.66
2022-07-30T23:09:52.004Z,100483.56
2022-07-30T23:12:20.107Z,100481.09
2022-07-30T23:12:33.009Z,100490.84
2022-07-30T23:14:46.754Z,100478.03
2022-07-30T23:17:13.062Z,100474.47
2022-07-30T23:19:39.372Z,100476.22
2022-07-30T23:22:06.995Z,100473.78
2022-07-30T23:24:33.296Z,100472.09
2022-07-30T23:26:59.811Z,100466.56
2022-07-30T23:29:26.313Z,100456.53
2022-07-30T23:31:52.604Z,100461.59
2022-07-30T23:34:18.986Z,100456.63
2022-07-30T23:36:45.275Z,100454.34
2022-07-30T23:39:11.580Z,100456.69
2022-07-30T23:41:38.276Z,100457.38
2022-07-30T23:44:04.558Z,100458.00
2022-07-30T23:46:30.836Z,100459.72
2022-07-30T23:48:57.145Z,100452.56
2022-07-30T23:51:23.603Z,100448.28
2022-07-30T23:53:49.894Z,100452.88
2022-07-30T23:56:17.754Z,100459.31
2022-07-30T23:58:45.841Z,100461.25
